sensor_id;sensor_type;location;lat;lon;timestamp;pressure;altitude;pressure_sealevel;temperature;humidity
12991;BME280;6560;57.692;11.958;2023-04-19T00:00:32;103429.31;;;15.81;71.54
12991;BME280;6560;57.692;11.958;2023-04-19T00:02:59;103426.38;;;15.69;71.60
12991;BME280;6560;57.692;11.958;2023-04-19T00:05:26;103411.31;;;15.78;72.65
12991;BME280;6560;57.692;11.958;2023-04-19T00:07:52;103436.91;;;15.59;74.82
12991;BME280;6560;57.692;11.958;2023-04-19T00:10:17;103435.75;;;15.74;73.58
12991;BME280;6560;57.692;11.958;2023-04-19T00:12:43;103435.34;;;15.61;75.08
12991;BME280;6560;57.692;11.958;2023-04-19T00:15:09;103445.81;;;15.68;74.94
12991;BME280;6560;57.692;11.958;2023-04-19T00:17:34;103430.03;;;15.44;75.55
12991;BME280;6560;57.692;11.958;2023-04-19T00:20:00;103445.06;;;15.43;75.37
12991;BME280;6560;57.692;11.958;2023-04-19T00:22:26;103426.75;;;16.93;70.87
12991;BME280;6560;57.692;11.958;2023-04-19T00:24:52;103433.66;;;15.53;74.25
12991;BME280;6560;57.692;11.958;2023-04-19T00:27:18;103410.94;;;15.92;70.94
12991;BME280;6560;57.692;11.958;2023-04-19T00:29:43;103322.44;;;14.60;76.59
12991;BME280;6560;57.692;11.958;2023-04-19T00:32:09;103281.41;;;14.13;78.44
12991;BME280;6560;57.692;11.958;2023-04-19T00:34:35;103438.19;;;14.75;81.99
12991;BME280;6560;57.692;11.958;2023-04-19T00:37:01;103440.16;;;15.03;78.37
12991;BME280;6560;57.692;11.958;2023-04-19T00:39:28;103450.78;;;15.03;79.65
12991;BME280;6560;57.692;11.958;2023-04-19T00:41:54;103369.97;;;13.72;86.25
12991;BME280;6560;57.692;11.958;2023-04-19T00:44:22;103448.13;;;14.34;84.23
12991;BME280;6560;57.692;11.958;2023-04-19T00:46:48;103429.75;;;15.41;84.32
12991;BME280;6560;57.692;11.958;2023-04-19T00:49:14;103436.91;;;15.68;80.25
12991;BME280;6560;57.692;11.958;2023-04-19T00:51:41;103426.97;;;15.75;81.17
12991;BME280;6560;57.692;11.958;2023-04-19T00:54:06;103441.16;;;16.39;77.33
12991;BME280;6560;57.692;11.958;2023-04-19T00:56:33;103426.16;;;16.87;72.79
12991;BME280;6560;57.692;11.958;2023-04-19T00:58:59;103434.97;;;16.86;72.13
12991;BME280;6560;57.692;11.958;2023-04-19T01:01:24;103436.66;;;16.29;74.20
12991;BME280;6560;57.692;11.958;2023-04-19T01:03:50;103436.09;;;14.21;83.21
12991;BME280;6560;57.692;11.958;2023-04-19T01:06:15;103442.00;;;14.18;83.75
12991;BME280;6560;57.692;11.958;2023-04-19T01:08:41;103440.97;;;15.64;81.39
12991;BME280;6560;57.692;11.958;2023-04-19T01:11:07;103458.38;;;13.97;87.48
12991;BME280;6560;57.692;11.958;2023-04-19T01:13:32;103405.50;;;15.02;86.48
12991;BME280;6560;57.692;11.958;2023-04-19T01:15:59;103398.25;;;15.63;81.49
12991;BME280;6560;57.692;11.958;2023-04-19T01:18:24;103444.38;;;14.32;82.58
12991;BME280;6560;57.692;11.958;2023-04-19T01:20:53;103451.75;;;13.76;90.25
12991;BME280;6560;57.692;11.958;2023-04-19T01:23:19;103444.81;;;13.61;90.93
12991;BME280;6560;57.692;11.958;2023-04-19T01:25:44;103433.03;;;13.42;94.26
12991;BME280;6560;57.692;11.958;2023-04-19T01:28:10;103404.72;;;13.01;97.92
12991;BME280;6560;57.692;11.958;2023-04-19T01:30:36;103385.69;;;13.53;100.00
12991;BME280;6560;57.692;11.958;2023-04-19T01:33:02;103444.63;;;13.51;95.26
12991;BME280;6560;57.692;11.958;2023-04-19T01:35:27;103458.19;;;13.54;97.45
12991;BME280;6560;57.692;11.958;2023-04-19T01:37:53;103461.06;;;13.40;100.00
12991;BME280;6560;57.692;11.958;2023-04-19T01:40:23;103465.22;;;14.54;95.76
12991;BME280;6560;57.692;11.958;2023-04-19T01:42:49;103450.19;;;15.06;89.65
12991;BME280;6560;57.692;11.958;2023-04-19T01:45:14;103342.53;;;14.84;84.34
12991;BME280;6560;57.692;11.958;2023-04-19T01:47:39;103445.78;;;15.15;87.77
12991;BME280;6560;57.692;11.958;2023-04-19T01:50:06;103452.94;;;15.25;85.96
12991;BME280;6560;57.692;11.958;2023-04-19T01:52:31;103458.41;;;15.26;84.02
12991;BME280;6560;57.692;11.958;2023-04-19T01:54:57;103457.41;;;14.72;88.57
12991;BME280;6560;57.692;11.958;2023-04-19T01:57:22;103452.50;;;15.11;86.15
12991;BME280;6560;57.692;11.958;2023-04-19T01:59:48;103457.38;;;14.98;87.36
12991;BME280;6560;57.692;11.958;2023-04-19T02:02:14;103461.25;;;15.10;86.01
12991;BME280;6560;57.692;11.958;2023-04-19T02:04:40;103453.00;;;15.07;85.87
12991;BME280;6560;57.692;11.958;2023-04-19T02:07:05;103454.09;;;15.09;86.50
12991;BME280;6560;57.692;11.958;2023-04-19T02:09:34;103436.44;;;14.84;87.57
12991;BME280;6560;57.692;11.958;2023-04-19T02:12:00;103457.72;;;14.67;88.54
12991;BME280;6560;57.692;11.958;2023-04-19T02:14:25;103420.81;;;14.87;86.76
12991;BME280;6560;57.692;11.958;2023-04-19T02:16:51;103401.81;;;14.57;87.25
12991;BME280;6560;57.692;11.958;2023-04-19T02:19:16;103443.81;;;14.87;85.16
12991;BME280;6560;57.692;11.958;2023-04-19T02:21:42;103438.47;;;14.95;85.18
12991;BME280;6560;57.692;11.958;2023-04-19T02:24:08;103391.44;;;14.77;84.64
12991;BME280;6560;57.692;11.958;2023-04-19T02:26:39;103438.31;;;14.51;88.69
12991;BME280;6560;57.692;11.958;2023-04-19T02:29:06;103433.09;;;14.01;90.10
12991;BME280;6560;57.692;11.958;2023-04-19T02:31:31;103438.50;;;14.44;87.29
12991;BME280;6560;57.692;11.958;2023-04-19T02:33:57;103438.28;;;14.16;89.25
12991;BME280;6560;57.692;11.958;2023-04-19T02:36:22;103445.41;;;14.00;90.24
12991;BME280;6560;57.692;11.958;2023-04-19T02:38:48;103444.50;;;14.08;90.31
12991;BME280;6560;57.692;11.958;2023-04-19T02:41:14;103415.47;;;14.10;89.11
12991;BME280;6560;57.692;11.958;2023-04-19T02:43:40;103440.38;;;13.86;91.41
12991;BME280;6560;57.692;11.958;2023-04-19T02:46:05;103413.78;;;14.10;88.36
12991;BME280;6560;57.692;11.958;2023-04-19T02:48:31;103434.63;;;13.90;92.08
12991;BME280;6560;57.692;11.958;2023-04-19T02:50:56;103409.22;;;14.01;91.32
12991;BME280;6560;57.692;11.958;2023-04-19T02:53:22;103435.56;;;12.60;96.44
12991;BME280;6560;57.692;11.958;2023-04-19T02:55:48;103427.16;;;12.40;100.00
12991;BME280;6560;57.692;11.958;2023-04-19T02:58:13;103411.03;;;12.46;100.00
12991;BME280;6560;57.692;11.958;2023-04-19T03:00:39;103397.41;;;12.58;100.00
12991;BME280;6560;57.692;11.958;2023-04-19T03:03:05;103346.31;;;12.35;99.80
12991;BME280;6560;57.692;11.958;2023-04-19T03:05:31;103354.22;;;12.51;99.48
12991;BME280;6560;57.692;11.958;2023-04-19T03:07:57;103409.38;;;12.55;100.00
12991;BME280;6560;57.692;11.958;2023-04-19T03:10:22;103410.00;;;12.52;100.00
12991;BME280;6560;57.692;11.958;2023-04-19T03:12:48;103429.94;;;12.73;100.00
12991;BME280;6560;57.692;11.958;2023-04-19T03:15:14;103439.22;;;12.69;100.00
12991;BME280;6560;57.692;11.958;2023-04-19T03:17:40;103218.03;;;11.51;100.00
12991;BME280;6560;57.692;11.958;2023-04-19T03:20:06;103235.75;;;13.14;95.84
12991;BME280;6560;57.692;11.958;2023-04-19T03:22:41;103379.88;;;14.08;94.27
12991;BME280;6560;57.692;11.958;2023-04-19T03:25:07;103381.78;;;14.34;89.01
12991;BME280;6560;57.692;11.958;2023-04-19T03:27:35;103401.97;;;14.50;88.93
12991;BME280;6560;57.692;11.958;2023-04-19T03:30:01;103362.59;;;12.07;99.26
12991;BME280;6560;57.692;11.958;2023-04-19T03:32:27;103411.53;;;12.03;100.00
12991;BME280;6560;57.692;11.958;2023-04-19T03:34:52;103423.81;;;12.34;100.00
12991;BME280;6560;57.692;11.958;2023-04-19T03:37:18;103419.06;;;12.38;100.00
12991;BME280;6560;57.692;11.958;2023-04-19T03:39:43;103365.91;;;12.13;100.00
12991;BME280;6560;57.692;11.958;2023-04-19T03:42:08;103418.09;;;12.22;100.00
12991;BME280;6560;57.692;11.958;2023-04-19T03:44:35;103435.06;;;11.77;100.00
12991;BME280;6560;57.692;11.958;2023-04-19T03:47:00;103333.56;;;11.68;100.00
12991;BME280;6560;57.692;11.958;2023-04-19T03:49:25;103362.00;;;11.93;100.00
12991;BME280;6560;57.692;11.958;2023-04-19T03:51:51;103423.94;;;12.67;100.00
12991;BME280;6560;57.692;11.958;2023-04-19T03:54:17;103424.31;;;12.54;100.00
12991;BME280;6560;57.692;11.958;2023-04-19T03:56:42;103423.63;;;12.48;100.00
12991;BME280;6560;57.692;11.958;2023-04-19T03:59:08;103428.78;;;12.15;100.00
12991;BME280;6560;57.692;11.958;2023-04-19T04:01:34;103421.72;;;12.07;100.00
12991;BME280;6560;57.692;11.958;2023-04-19T04:03:59;103418.13;;;12.38;100.00
12991;BME280;6560;57.692;11.958;2023-04-19T04:06:25;103401.38;;;12.30;100.00
12991;BME280;6560;57.692;11.958;2023-04-19T04:08:51;103400.03;;;12.18;100.00
12991;BME280;6560;57.692;11.958;2023-04-19T04:11:16;103416.13;;;12.44;100.00
12991;BME280;6560;57.692;11.958;2023-04-19T04:13:42;103408.03;;;12.43;100.00
12991;BME280;6560;57.692;11.958;2023-04-19T04:16:08;103382.28;;;12.17;100.00
12991;BME280;6560;57.692;11.958;2023-04-19T04:18:33;103365.06;;;12.05;100.00
12991;BME280;6560;57.692;11.958;2023-04-19T04:20:59;103393.78;;;12.18;100.00
12991;BME280;6560;57.692;11.958;2023-04-19T04:23:25;103290.47;;;11.38;100.00
12991;BME280;6560;57.692;11.958;2023-04-19T04:25:58;103403.44;;;12.02;100.00
12991;BME280;6560;57.692;11.958;2023-04-19T04:28:25;103375.47;;;12.04;100.00
12991;BME280;6560;57.692;11.958;2023-04-19T04:30:51;103337.06;;;11.76;100.00
12991;BME280;6560;57.692;11.958;2023-04-19T04:33:17;103254.84;;;11.18;100.00
12991;BME280;6560;57.692;11.958;2023-04-19T04:35:43;103400.09;;;11.95;100.00
12991;BME280;6560;57.692;11.958;2023-04-19T04:38:08;103395.78;;;13.90;98.05
12991;BME280;6560;57.692;11.958;2023-04-19T04:40:34;103277.88;;;11.67;100.00
12991;BME280;6560;57.692;11.958;2023-04-19T04:43:00;103377.50;;;12.06;100.00
12991;BME280;6560;57.692;11.958;2023-04-19T04:45:28;103412.06;;;12.39;100.00
12991;BME280;6560;57.692;11.958;2023-04-19T04:47:54;103353.44;;;11.96;100.00
12991;BME280;6560;57.692;11.958;2023-04-19T04:50:19;103348.16;;;12.12;100.00
12991;BME280;6560;57.692;11.958;2023-04-19T04:52:45;103370.09;;;12.26;100.00
12991;BME280;6560;57.692;11.958;2023-04-19T04:55:10;103420.41;;;12.35;100.00
12991;BME280;6560;57.692;11.958;2023-04-19T04:57:36;103418.53;;;12.18;100.00
12991;BME280;6560;57.692;11.958;2023-04-19T05:00:02;103424.38;;;12.63;100.00
12991;BME280;6560;57.692;11.958;2023-04-19T05:02:29;103372.34;;;12.79;100.00
12991;BME280;6560;57.692;11.958;2023-04-19T05:04:55;103366.69;;;12.12;100.00
12991;BME280;6560;57.692;11.958;2023-04-19T05:07:20;103421.09;;;12.10;100.00
12991;BME280;6560;57.692;11.958;2023-04-19T05:09:46;103424.59;;;12.02;100.00
12991;BME280;6560;57.692;11.958;2023-04-19T05:12:11;103421.31;;;11.88;100.00
12991;BME280;6560;57.692;11.958;2023-04-19T05:14:37;103399.34;;;11.96;100.00
12991;BME280;6560;57.692;11.958;2023-04-19T05:17:02;103416.06;;;12.35;100.00
12991;BME280;6560;57.692;11.958;2023-04-19T05:19:27;103378.41;;;12.38;100.00
12991;BME280;6560;57.692;11.958;2023-04-19T05:21:56;103438.78;;;13.13;100.00
12991;BME280;6560;57.692;11.958;2023-04-19T05:24:21;103320.44;;;13.30;100.00
12991;BME280;6560;57.692;11.958;2023-04-19T05:26:47;103413.53;;;14.50;97.60
12991;BME280;6560;57.692;11.958;2023-04-19T05:29:13;103433.63;;;14.91;92.99
12991;BME280;6560;57.692;11.958;2023-04-19T05:31:38;103299.97;;;14.48;90.31
12991;BME280;6560;57.692;11.958;2023-04-19T05:34:04;103405.41;;;15.72;87.95
12991;BME280;6560;57.692;11.958;2023-04-19T05:36:30;103222.59;;;16.27;81.01
12991;BME280;6560;57.692;11.958;2023-04-19T05:38:56;103216.78;;;16.70;78.52
12991;BME280;6560;57.692;11.958;2023-04-19T05:41:21;103373.56;;;17.93;73.49
12991;BME280;6560;57.692;11.958;2023-04-19T05:43:47;103378.44;;;20.10;68.88
12991;BME280;6560;57.692;11.958;2023-04-19T05:46:13;103375.88;;;20.57;65.61
12991;BME280;6560;57.692;11.958;2023-04-19T05:48:39;103350.38;;;20.74;63.19
12991;BME280;6560;57.692;11.958;2023-04-19T05:51:04;103353.72;;;20.83;61.99
12991;BME280;6560;57.692;11.958;2023-04-19T05:53:44;103364.56;;;20.38;58.83
12991;BME280;6560;57.692;11.958;2023-04-19T05:56:10;103356.81;;;20.19;61.08
12991;BME280;6560;57.692;11.958;2023-04-19T05:58:35;103357.47;;;20.73;61.50
12991;BME280;6560;57.692;11.958;2023-04-19T06:01:02;103309.69;;;19.32;59.61
12991;BME280;6560;57.692;11.958;2023-04-19T06:03:28;103357.69;;;20.88;57.66
12991;BME280;6560;57.692;11.958;2023-04-19T06:05:54;103359.69;;;19.99;57.67
12991;BME280;6560;57.692;11.958;2023-04-19T06:08:19;103359.00;;;20.58;60.48
12991;BME280;6560;57.692;11.958;2023-04-19T06:10:45;103359.72;;;20.22;56.48
12991;BME280;6560;57.692;11.958;2023-04-19T06:13:12;103352.53;;;21.02;57.08
12991;BME280;6560;57.692;11.958;2023-04-19T06:15:38;103331.63;;;20.17;56.24
12991;BME280;6560;57.692;11.958;2023-04-19T06:18:32;103352.31;;;21.47;53.71
12991;BME280;6560;57.692;11.958;2023-04-19T06:20:57;103355.50;;;20.59;57.96
12991;BME280;6560;57.692;11.958;2023-04-19T06:23:23;103344.19;;;21.34;55.39
12991;BME280;6560;57.692;11.958;2023-04-19T06:25:49;103343.47;;;21.48;55.56
12991;BME280;6560;57.692;11.958;2023-04-19T06:28:15;103346.16;;;22.36;51.12
12991;BME280;6560;57.692;11.958;2023-04-19T06:30:40;103343.03;;;23.22;51.46
12991;BME280;6560;57.692;11.958;2023-04-19T06:33:06;103345.00;;;22.33;49.74
12991;BME280;6560;57.692;11.958;2023-04-19T06:35:31;103337.75;;;20.38;52.24
12991;BME280;6560;57.692;11.958;2023-04-19T06:38:00;103351.69;;;21.15;53.51
12991;BME280;6560;57.692;11.958;2023-04-19T06:40:25;103341.00;;;21.76;52.25
12991;BME280;6560;57.692;11.958;2023-04-19T06:42:53;103350.00;;;21.52;51.90
12991;BME280;6560;57.692;11.958;2023-04-19T06:45:18;103345.38;;;21.15;51.64
12991;BME280;6560;57.692;11.958;2023-04-19T06:47:44;103321.09;;;20.77;53.41
12991;BME280;6560;57.692;11.958;2023-04-19T06:50:10;103337.81;;;21.21;52.57
12991;BME280;6560;57.692;11.958;2023-04-19T06:52:35;103336.22;;;21.47;51.72
12991;BME280;6560;57.692;11.958;2023-04-19T06:55:01;103288.94;;;20.65;51.56
12991;BME280;6560;57.692;11.958;2023-04-19T06:57:27;103143.31;;;19.60;52.99
12991;BME280;6560;57.692;11.958;2023-04-19T06:59:55;103260.84;;;20.60;52.37
12991;BME280;6560;57.692;11.958;2023-04-19T07:02:22;103306.63;;;19.71;52.27
12991;BME280;6560;57.692;11.958;2023-04-19T07:04:47;103294.13;;;20.05;53.44
12991;BME280;6560;57.692;11.958;2023-04-19T07:07:13;103350.53;;;20.30;53.29
12991;BME280;6560;57.692;11.958;2023-04-19T07:09:38;103384.72;;;19.34;54.05
12991;BME280;6560;57.692;11.958;2023-04-19T07:12:05;103283.09;;;19.67;54.39
12991;BME280;6560;57.692;11.958;2023-04-19T07:14:31;103336.56;;;19.89;53.77
12991;BME280;6560;57.692;11.958;2023-04-19T07:16:56;103288.59;;;19.03;54.80
12991;BME280;6560;57.692;11.958;2023-04-19T07:19:22;103116.75;;;18.73;53.76
12991;BME280;6560;57.692;11.958;2023-04-19T07:21:48;103220.75;;;19.92;54.36
12991;BME280;6560;57.692;11.958;2023-04-19T07:24:14;103137.88;;;19.81;53.04
12991;BME280;6560;57.692;11.958;2023-04-19T07:26:40;103340.50;;;21.57;52.43
12991;BME280;6560;57.692;11.958;2023-04-19T07:29:06;103321.69;;;22.07;51.27
12991;BME280;6560;57.692;11.958;2023-04-19T07:31:31;103251.13;;;22.09;50.97
12991;BME280;6560;57.692;11.958;2023-04-19T07:33:57;103335.25;;;22.08;50.32
12991;BME280;6560;57.692;11.958;2023-04-19T07:36:23;103153.88;;;21.01;50.79
12991;BME280;6560;57.692;11.958;2023-04-19T07:38:49;103302.88;;;22.07;50.49
12991;BME280;6560;57.692;11.958;2023-04-19T07:41:14;103284.91;;;22.85;49.98
12991;BME280;6560;57.692;11.958;2023-04-19T07:43:40;103265.16;;;22.58;49.60
12991;BME280;6560;57.692;11.958;2023-04-19T07:46:10;103316.47;;;22.35;49.63
12991;BME280;6560;57.692;11.958;2023-04-19T07:48:36;103208.31;;;20.39;51.34
12991;BME280;6560;57.692;11.958;2023-04-19T07:51:09;103317.06;;;22.04;50.32
12991;BME280;6560;57.692;11.958;2023-04-19T07:53:36;103287.06;;;21.73;50.49
12991;BME280;6560;57.692;11.958;2023-04-19T07:56:02;103219.84;;;21.22;50.15
12991;BME280;6560;57.692;11.958;2023-04-19T07:58:27;103282.50;;;20.28;51.92
12991;BME280;6560;57.692;11.958;2023-04-19T08:00:53;103241.09;;;20.83;51.71
12991;BME280;6560;57.692;11.958;2023-04-19T08:03:19;103315.31;;;21.93;49.88
12991;BME280;6560;57.692;11.958;2023-04-19T08:05:44;103288.38;;;21.42;49.86
12991;BME280;6560;57.692;11.958;2023-04-19T08:08:10;103316.97;;;22.16;49.38
12991;BME280;6560;57.692;11.958;2023-04-19T08:10:36;103281.00;;;21.89;48.63
12991;BME280;6560;57.692;11.958;2023-04-19T08:13:02;103313.25;;;22.40;48.95
12991;BME280;6560;57.692;11.958;2023-04-19T08:15:28;103326.25;;;21.83;49.24
12991;BME280;6560;57.692;11.958;2023-04-19T08:17:54;103298.16;;;21.78;48.62
12991;BME280;6560;57.692;11.958;2023-04-19T08:20:19;103178.59;;;19.44;50.58
12991;BME280;6560;57.692;11.958;2023-04-19T08:22:46;103283.16;;;20.02;50.98
12991;BME280;6560;57.692;11.958;2023-04-19T08:25:12;103147.84;;;19.84;51.42
12991;BME280;6560;57.692;11.958;2023-04-19T08:27:37;103304.06;;;20.76;50.56
12991;BME280;6560;57.692;11.958;2023-04-19T08:30:03;103218.44;;;20.19;50.80
12991;BME280;6560;57.692;11.958;2023-04-19T08:32:29;103309.41;;;20.88;50.37
12991;BME280;6560;57.692;11.958;2023-04-19T08:34:55;103206.31;;;20.13;50.76
12991;BME280;6560;57.692;11.958;2023-04-19T08:37:21;103301.31;;;21.11;50.36
12991;BME280;6560;57.692;11.958;2023-04-19T08:39:47;103151.63;;;18.74;52.40
12991;BME280;6560;57.692;11.958;2023-04-19T08:42:12;103165.66;;;18.71;52.81
12991;BME280;6560;57.692;11.958;2023-04-19T08:44:39;103193.63;;;19.42;52.75
12991;BME280;6560;57.692;11.958;2023-04-19T08:47:05;103244.41;;;19.52;53.25
12991;BME280;6560;57.692;11.958;2023-04-19T08:49:34;103153.16;;;18.70;53.57
12991;BME280;6560;57.692;11.958;2023-04-19T08:52:03;103301.38;;;19.73;53.45
12991;BME280;6560;57.692;11.958;2023-04-19T08:54:30;103263.03;;;20.19;52.41
12991;BME280;6560;57.692;11.958;2023-04-19T08:56:59;103148.56;;;18.91;53.32
12991;BME280;6560;57.692;11.958;2023-04-19T08:59:26;103226.34;;;19.16;54.11
12991;BME280;6560;57.692;11.958;2023-04-19T09:01:53;103245.19;;;19.18;52.96
12991;BME280;6560;57.692;11.958;2023-04-19T09:04:20;103282.38;;;20.15;50.92
12991;BME280;6560;57.692;11.958;2023-04-19T09:06:46;103275.84;;;20.11;51.47
12991;BME280;6560;57.692;11.958;2023-04-19T09:09:16;103221.13;;;20.08;50.90
12991;BME280;6560;57.692;11.958;2023-04-19T09:11:42;103269.19;;;19.95;51.67
12991;BME280;6560;57.692;11.958;2023-04-19T09:14:09;103220.47;;;19.54;51.85
12991;BME280;6560;57.692;11.958;2023-04-19T09:16:35;103267.38;;;19.38;51.56
12991;BME280;6560;57.692;11.958;2023-04-19T09:19:04;103274.91;;;20.11;52.45
12991;BME280;6560;57.692;11.958;2023-04-19T09:21:31;103219.69;;;19.44;51.51
12991;BME280;6560;57.692;11.958;2023-04-19T09:23:58;103254.00;;;19.38;50.95
12991;BME280;6560;57.692;11.958;2023-04-19T09:26:24;103269.88;;;19.25;51.10
12991;BME280;6560;57.692;11.958;2023-04-19T09:29:06;103250.63;;;19.41;50.70
12991;BME280;6560;57.692;11.958;2023-04-19T09:31:36;103179.50;;;19.66;51.07
12991;BME280;6560;57.692;11.958;2023-04-19T09:34:13;103207.94;;;20.11;50.60
12991;BME280;6560;57.692;11.958;2023-04-19T09:36:39;103195.72;;;20.26;50.12
12991;BME280;6560;57.692;11.958;2023-04-19T09:39:06;103222.06;;;19.52;50.32
12991;BME280;6560;57.692;11.958;2023-04-19T09:41:32;103245.22;;;19.51;50.75
12991;BME280;6560;57.692;11.958;2023-04-19T09:44:11;103223.56;;;19.15;50.27
12991;BME280;6560;57.692;11.958;2023-04-19T09:46:40;103255.19;;;19.75;50.00
12991;BME280;6560;57.692;11.958;2023-04-19T09:51:42;103186.06;;;18.81;50.05
12991;BME280;6560;57.692;11.958;2023-04-19T09:54:09;103238.38;;;19.33;50.21
12991;BME280;6560;57.692;11.958;2023-04-19T09:56:36;103232.19;;;19.00;49.82
12991;BME280;6560;57.692;11.958;2023-04-19T09:59:03;103228.44;;;19.20;50.25
12991;BME280;6560;57.692;11.958;2023-04-19T10:01:34;103209.72;;;19.20;49.77
12991;BME280;6560;57.692;11.958;2023-04-19T10:04:02;103185.41;;;19.17;49.66
12991;BME280;6560;57.692;11.958;2023-04-19T10:06:29;103196.81;;;18.71;49.61
12991;BME280;6560;57.692;11.958;2023-04-19T10:08:57;103230.91;;;18.31;50.07
12991;BME280;6560;57.692;11.958;2023-04-19T10:11:25;103203.53;;;18.66;51.08
12991;BME280;6560;57.692;11.958;2023-04-19T10:13:56;103214.78;;;19.05;50.63
12991;BME280;6560;57.692;11.958;2023-04-19T10:16:25;103215.91;;;18.44;50.30
12991;BME280;6560;57.692;11.958;2023-04-19T10:18:51;103191.16;;;18.56;48.24
12991;BME280;6560;57.692;11.958;2023-04-19T10:21:18;103196.28;;;18.43;47.30
12991;BME280;6560;57.692;11.958;2023-04-19T10:23:45;103156.09;;;18.31;46.84
12991;BME280;6560;57.692;11.958;2023-04-19T10:26:11;103121.91;;;18.38;47.49
12991;BME280;6560;57.692;11.958;2023-04-19T10:28:36;103202.19;;;19.48;47.01
12991;BME280;6560;57.692;11.958;2023-04-19T10:31:03;103167.22;;;19.01;47.82
12991;BME280;6560;57.692;11.958;2023-04-19T10:33:34;103151.28;;;18.38;48.81
12991;BME280;6560;57.692;11.958;2023-04-19T10:36:01;103149.53;;;19.03;47.92
12991;BME280;6560;57.692;11.958;2023-04-19T10:38:40;103191.56;;;18.51;48.29
12991;BME280;6560;57.692;11.958;2023-04-19T10:41:07;103184.88;;;19.33;48.04
12991;BME280;6560;57.692;11.958;2023-04-19T10:43:37;103176.41;;;19.05;47.59
12991;BME280;6560;57.692;11.958;2023-04-19T10:46:08;103139.91;;;19.50;46.88
12991;BME280;6560;57.692;11.958;2023-04-19T10:48:38;103081.00;;;18.82;47.41
12991;BME280;6560;57.692;11.958;2023-04-19T10:51:16;103155.63;;;19.13;47.80
12991;BME280;6560;57.692;11.958;2023-04-19T10:56:13;103153.31;;;18.52;48.47
12991;BME280;6560;57.692;11.958;2023-04-19T11:04:10;103151.81;;;19.21;47.77
12991;BME280;6560;57.692;11.958;2023-04-19T11:09:26;103151.81;;;19.89;46.96
12991;BME280;6560;57.692;11.958;2023-04-19T11:11:56;103122.03;;;19.61;46.93
12991;BME280;6560;57.692;11.958;2023-04-19T11:14:23;103137.34;;;20.10;46.37
12991;BME280;6560;57.692;11.958;2023-04-19T11:16:49;103092.19;;;20.15;46.00
12991;BME280;6560;57.692;11.958;2023-04-19T11:19:20;103132.50;;;19.93;46.73
12991;BME280;6560;57.692;11.958;2023-04-19T11:21:47;103081.72;;;18.58;47.69
12991;BME280;6560;57.692;11.958;2023-04-19T11:24:13;103103.69;;;18.87;47.64
12991;BME280;6560;57.692;11.958;2023-04-19T11:26:46;103139.94;;;19.85;46.91
12991;BME280;6560;57.692;11.958;2023-04-19T11:29:12;103090.31;;;20.02;46.23
12991;BME280;6560;57.692;11.958;2023-04-19T11:31:38;102842.50;;;18.06;46.70
12991;BME280;6560;57.692;11.958;2023-04-19T11:34:04;103043.97;;;18.98;47.18
12991;BME280;6560;57.692;11.958;2023-04-19T11:36:30;103135.38;;;20.19;45.88
12991;BME280;6560;57.692;11.958;2023-04-19T11:38:56;102852.81;;;19.17;46.23
12991;BME280;6560;57.692;11.958;2023-04-19T11:41:22;102859.63;;;18.31;45.84
12991;BME280;6560;57.692;11.958;2023-04-19T11:43:47;103132.19;;;19.43;45.48
12991;BME280;6560;57.692;11.958;2023-04-19T11:46:13;103135.44;;;19.39;45.09
12991;BME280;6560;57.692;11.958;2023-04-19T11:48:53;102985.13;;;19.45;43.82
12991;BME280;6560;57.692;11.958;2023-04-19T11:51:19;103097.75;;;20.18;43.43
12991;BME280;6560;57.692;11.958;2023-04-19T11:53:45;103002.44;;;20.33;42.82
12991;BME280;6560;57.692;11.958;2023-04-19T11:56:11;102902.38;;;18.88;42.76
12991;BME280;6560;57.692;11.958;2023-04-19T11:58:44;102959.19;;;18.86;41.45
12991;BME280;6560;57.692;11.958;2023-04-19T12:01:18;103070.91;;;19.35;40.69
12991;BME280;6560;57.692;11.958;2023-04-19T12:03:48;103117.25;;;19.92;39.80
12991;BME280;6560;57.692;11.958;2023-04-19T12:06:22;103121.78;;;19.81;40.69
12991;BME280;6560;57.692;11.958;2023-04-19T12:08:49;103103.63;;;19.54;40.99
12991;BME280;6560;57.692;11.958;2023-04-19T12:11:16;103115.75;;;19.49;40.98
12991;BME280;6560;57.692;11.958;2023-04-19T12:14:13;103123.97;;;19.64;40.89
12991;BME280;6560;57.692;11.958;2023-04-19T12:16:38;102980.59;;;19.44;40.23
12991;BME280;6560;57.692;11.958;2023-04-19T12:19:17;103089.41;;;19.90;40.56
12991;BME280;6560;57.692;11.958;2023-04-19T12:21:45;103058.91;;;20.00;40.03
12991;BME280;6560;57.692;11.958;2023-04-19T12:24:14;103060.47;;;20.09;40.20
12991;BME280;6560;57.692;11.958;2023-04-19T12:26:53;103044.28;;;20.19;40.00
12991;BME280;6560;57.692;11.958;2023-04-19T12:29:19;103055.50;;;20.14;40.08
12991;BME280;6560;57.692;11.958;2023-04-19T12:31:45;103086.53;;;20.47;40.15
12991;BME280;6560;57.692;11.958;2023-04-19T12:34:10;103100.50;;;20.31;40.31
12991;BME280;6560;57.692;11.958;2023-04-19T12:36:36;103075.00;;;21.11;40.01
12991;BME280;6560;57.692;11.958;2023-04-19T12:39:01;103029.66;;;21.53;39.56
12991;BME280;6560;57.692;11.958;2023-04-19T12:41:27;103014.69;;;20.18;38.65
12991;BME280;6560;57.692;11.958;2023-04-19T12:43:52;102956.78;;;19.47;39.12
12991;BME280;6560;57.692;11.958;2023-04-19T12:46:18;102933.66;;;20.09;39.65
12991;BME280;6560;57.692;11.958;2023-04-19T12:48:43;103033.84;;;20.47;38.76
12991;BME280;6560;57.692;11.958;2023-04-19T12:51:09;102983.22;;;20.27;39.40
12991;BME280;6560;57.692;11.958;2023-04-19T12:53:34;103010.72;;;21.12;39.37
12991;BME280;6560;57.692;11.958;2023-04-19T12:56:00;103006.75;;;20.94;38.33
12991;BME280;6560;57.692;11.958;2023-04-19T12:58:26;103067.16;;;19.91;39.87